Time;durP1;ratioP1;P1;durP2;ratioP2;P2;SDS_P1;SDS_P2;PMS_P1;PMS_P2;Temp;Humidity;BMP_temperature;BMP_pressure;BME280_temperature;BME280_humidity;BME280_pressure;Samples;Min_cycle;Max_cycle;Signal;HPM_P1;HPM_P2
2020/12/30 00:00:44;;;;;;;9.02;4.15;;;;;;;1.06;100.00;94728.06;4916247;28;20051;-50
2020/12/30 00:03:11;;;;;;;8.45;4.20;;;;;;;1.00;100.00;94723.41;4947909;28;20583;-47
2020/12/30 00:05:38;;;;;;;8.90;4.05;;;;;;;0.87;100.00;94723.63;4904301;28;20039;-51
2020/12/30 00:08:06;;;;;;;9.20;4.30;;;;;;;0.72;100.00;94736.06;4947168;28;20082;-50
2020/12/30 00:10:34;;;;;;;7.60;4.00;;;;;;;0.68;100.00;94727.72;4911198;28;20054;-49
2020/12/30 00:13:01;;;;;;;8.30;4.55;;;;;;;0.47;100.00;94732.91;4942959;28;20084;-50
2020/12/30 00:15:28;;;;;;;6.97;4.15;;;;;;;0.53;100.00;94731.59;4947067;28;20498;-48
2020/12/30 00:17:56;;;;;;;8.05;3.97;;;;;;;0.40;100.00;94725.78;4921712;28;20102;-49
2020/12/30 00:20:23;;;;;;;9.10;4.30;;;;;;;0.48;100.00;94738.94;4944145;28;20451;-52
2020/12/30 00:22:51;;;;;;;8.07;4.60;;;;;;;0.52;100.00;94729.97;4912324;28;20043;-49
2020/12/30 00:25:19;;;;;;;10.07;4.90;;;;;;;0.48;100.00;94736.31;4927901;29;20039;-46
2020/12/30 00:27:48;;;;;;;8.23;4.15;;;;;;;0.52;100.00;94753.31;4926126;28;20048;-48
2020/12/30 00:30:16;;;;;;;7.03;4.15;;;;;;;0.45;100.00;94746.97;4945333;28;20076;-51
2020/12/30 00:32:45;;;;;;;8.38;4.40;;;;;;;0.41;100.00;94748.16;4916344;28;20051;-49
2020/12/30 00:35:13;;;;;;;11.95;4.97;;;;;;;0.26;100.00;94752.00;4950939;28;20039;-50
2020/12/30 00:37:41;;;;;;;9.93;4.75;;;;;;;0.09;100.00;94759.38;4901348;28;20126;-46
2020/12/30 00:40:08;;;;;;;9.32;4.82;;;;;;;0.02;100.00;94754.78;4949134;28;20043;-48
2020/12/30 00:42:37;;;;;;;8.73;4.50;;;;;;;-0.03;100.00;94765.53;4914139;28;20051;-48
2020/12/30 00:45:06;;;;;;;10.45;5.07;;;;;;;-0.02;100.00;94762.81;4944721;28;20051;-48
2020/12/30 00:47:34;;;;;;;8.23;4.73;;;;;;;0.03;100.00;94766.81;4915165;28;20474;-46
2020/12/30 00:50:01;;;;;;;8.45;4.82;;;;;;;0.12;100.00;94769.47;4947963;28;20055;-46
2020/12/30 00:52:31;;;;;;;12.43;6.05;;;;;;;0.01;100.00;94774.72;4904137;28;20043;-46
2020/12/30 00:55:01;;;;;;;13.13;6.22;;;;;;;0.03;100.00;94775.38;4949852;28;20172;-51
2020/12/30 00:57:47;;;;;;;11.32;5.40;;;;;;;-0.16;100.00;94778.63;4915103;28;20050;-47
2020/12/30 01:00:16;;;;;;;11.70;5.70;;;;;;;-0.20;100.00;94776.41;4947675;28;20039;-52
2020/12/30 01:03:02;;;;;;;13.15;5.85;;;;;;;-0.15;100.00;94784.63;4918746;28;20078;-47
2020/12/30 01:05:29;;;;;;;15.65;7.25;;;;;;;-0.07;100.00;94780.50;4948862;28;20046;-48
2020/12/30 01:07:56;;;;;;;21.05;7.18;;;;;;;-0.12;100.00;94779.22;4912271;28;20043;-49
2020/12/30 01:10:27;;;;;;;18.23;7.15;;;;;;;-0.03;100.00;94784.50;4952473;28;20058;-48
2020/12/30 01:12:54;;;;;;;17.10;7.13;;;;;;;-0.06;100.00;94784.72;4901843;28;20118;-46
2020/12/30 01:15:22;;;;;;;16.05;6.30;;;;;;;-0.07;100.00;94782.25;4948259;28;20054;-46
2020/12/30 01:17:49;;;;;;;19.35;7.70;;;;;;;-0.14;100.00;94781.91;4948618;28;20050;-49
2020/12/30 01:20:16;;;;;;;13.32;5.10;;;;;;;-0.20;100.00;94784.19;4905803;28;20125;-47
2020/12/30 01:22:43;;;;;;;13.27;5.93;;;;;;;-0.29;100.00;94788.31;4928423;29;20122;-48
2020/12/30 01:25:10;;;;;;;12.15;5.00;;;;;;;-0.33;100.00;94784.31;4916190;28;20109;-48
2020/12/30 01:27:37;;;;;;;10.52;4.30;;;;;;;-0.32;100.00;94785.94;4946649;28;20043;-47
2020/12/30 01:30:05;;;;;;;6.97;3.75;;;;;;;-0.28;100.00;94785.56;4934275;28;20045;-49
2020/12/30 01:32:33;;;;;;;6.80;4.10;;;;;;;-0.36;100.00;94795.72;4946109;28;20039;-47
2020/12/30 01:35:00;;;;;;;6.70;4.20;;;;;;;-0.64;100.00;94793.63;4917397;28;20509;-50
2020/12/30 01:37:26;;;;;;;7.03;3.75;;;;;;;-0.69;100.00;94796.56;4942017;28;20446;-49
2020/12/30 01:39:54;;;;;;;6.22;3.60;;;;;;;-0.55;100.00;94798.06;4907123;28;20103;-49
2020/12/30 01:42:21;;;;;;;8.18;3.88;;;;;;;-0.56;100.00;94802.44;4946337;28;20047;-49
2020/12/30 01:44:48;;;;;;;6.63;4.00;;;;;;;-0.69;100.00;94813.84;4923046;28;20047;-47
2020/12/30 01:47:15;;;;;;;7.78;3.75;;;;;;;-0.82;100.00;94809.63;4948414;28;20249;-50
2020/12/30 01:49:44;;;;;;;8.60;4.03;;;;;;;-0.86;100.00;94804.78;4908280;28;20051;-49
2020/12/30 01:52:11;;;;;;;6.28;3.63;;;;;;;-0.82;100.00;94803.63;4949258;28;20039;-51
2020/12/30 01:54:38;;;;;;;8.32;3.70;;;;;;;-0.84;100.00;94810.66;4917529;28;20383;-48
2020/12/30 01:57:05;;;;;;;6.60;3.92;;;;;;;-0.91;100.00;94804.31;4929086;28;20216;-52
2020/12/30 01:59:32;;;;;;;6.85;3.53;;;;;;;-0.86;100.00;94808.22;4940693;28;20035;-50
2020/12/30 02:02:04;;;;;;;7.10;3.42;;;;;;;-0.81;100.00;94810.44;4935582;28;20063;-49
2020/12/30 02:04:39;;;;;;;7.00;3.33;;;;;;;-0.88;100.00;94807.50;4946439;28;20490;-47
2020/12/30 02:07:07;;;;;;;6.93;2.85;;;;;;;-0.86;100.00;94805.63;4906731;28;20039;-49
2020/12/30 02:09:35;;;;;;;7.00;3.63;;;;;;;-0.97;100.00;94803.00;4946928;28;25635;-47
2020/12/30 02:12:02;;;;;;;5.40;3.40;;;;;;;-1.05;100.00;94803.59;4919502;28;20050;-50
2020/12/30 02:14:29;;;;;;;7.13;3.53;;;;;;;-1.19;100.00;94811.56;4945271;28;20035;-47
2020/12/30 02:16:56;;;;;;;5.57;3.67;;;;;;;-1.28;100.00;94807.88;4909370;28;20525;-46
2020/12/30 02:19:23;;;;;;;5.03;3.40;;;;;;;-1.28;100.00;94810.47;4947639;28;20521;-50
2020/12/30 02:21:53;;;;;;;6.90;3.60;;;;;;;-1.28;100.00;94810.47;4901908;29;20047;-50
2020/12/30 02:24:26;;;;;;;6.87;4.03;;;;;;;-1.25;100.00;94815.41;4948004;28;20050;-50
2020/12/30 02:26:53;;;;;;;5.75;3.13;;;;;;;-1.25;100.00;94818.00;4913065;28;20039;-50
2020/12/30 02:29:20;;;;;;;6.50;3.75;;;;;;;-1.17;100.00;94812.28;4944014;28;20053;-49
2020/12/30 02:31:47;;;;;;;7.82;3.53;;;;;;;-1.05;100.00;94802.75;4915319;28;20039;-47
2020/12/30 02:34:15;;;;;;;7.82;3.60;;;;;;;-1.00;100.00;94809.25;4947154;28;20039;-50
2020/12/30 02:36:43;;;;;;;5.95;3.60;;;;;;;-0.97;100.00;94808.16;4906245;28;20344;-46
2020/12/30 02:39:10;;;;;;;10.05;3.72;;;;;;;-0.98;100.00;94804.75;4949924;28;20062;-50
2020/12/30 02:41:38;;;;;;;5.53;3.20;;;;;;;-1.03;100.00;94806.06;4907001;28;20055;-48
2020/12/30 02:44:06;;;;;;;5.55;3.17;;;;;;;-1.10;100.00;94813.47;4944216;28;20135;-48
2020/12/30 02:46:34;;;;;;;6.32;3.13;;;;;;;-1.19;100.00;94808.97;4926499;28;20090;-50
2020/12/30 02:49:01;;;;;;;5.55;2.90;;;;;;;-1.20;100.00;94815.91;4947834;28;20513;-48
2020/12/30 02:51:28;;;;;;;7.47;3.20;;;;;;;-1.32;100.00;94810.81;4946825;28;20035;-50
2020/12/30 02:53:55;;;;;;;5.05;2.80;;;;;;;-1.36;100.00;94811.97;4911392;28;20524;-51
2020/12/30 02:56:23;;;;;;;6.22;3.10;;;;;;;-1.42;100.00;94812.41;4960488;28;20045;-48
2020/12/30 02:58:52;;;;;;;6.05;3.33;;;;;;;-1.43;100.00;94824.53;4913563;28;20043;-47
2020/12/30 03:01:20;;;;;;;5.75;3.05;;;;;;;-1.35;100.00;94814.44;4939563;28;20054;-46
2020/12/30 03:03:49;;;;;;;6.80;3.25;;;;;;;-1.28;100.00;94820.81;4909967;28;20036;-48
2020/12/30 03:06:16;;;;;;;5.65;3.10;;;;;;;-1.28;100.00;94819.97;4947956;28;20584;-51
2020/12/30 03:08:43;;;;;;;5.75;2.85;;;;;;;-1.29;100.00;94832.09;4918160;28;20106;-48
2020/12/30 03:11:10;;;;;;;5.63;3.00;;;;;;;-1.34;100.00;94825.59;4926882;29;20039;-49
2020/12/30 03:13:39;;;;;;;5.50;2.80;;;;;;;-1.36;100.00;94833.47;4913252;28;20473;-50
2020/12/30 03:16:07;;;;;;;5.63;2.83;;;;;;;-1.37;100.00;94837.00;4944634;28;20043;-51
2020/12/30 03:18:34;;;;;;;4.88;2.90;;;;;;;-1.35;100.00;94834.28;4901953;28;20387;-50
2020/12/30 03:21:01;;;;;;;5.05;3.05;;;;;;;-1.19;100.00;94834.81;4964133;28;20043;-54
2020/12/30 03:23:28;;;;;;;4.07;2.80;;;;;;;-1.18;100.00;94835.66;4913204;28;20151;-53
2020/12/30 03:25:55;;;;;;;8.05;3.15;;;;;;;-1.16;100.00;94834.59;4945206;28;20045;-51
2020/12/30 03:28:22;;;;;;;5.75;3.28;;;;;;;-1.08;100.00;94836.63;4902286;28;20050;-51
2020/12/30 03:30:49;;;;;;;10.68;3.40;;;;;;;-1.01;100.00;94836.03;4944944;28;20078;-50
2020/12/30 03:33:17;;;;;;;5.90;3.10;;;;;;;-0.88;100.00;94828.19;4917174;28;20158;-52
2020/12/30 03:35:44;;;;;;;4.80;2.88;;;;;;;-0.70;100.00;94823.38;4943423;28;20051;-54
2020/12/30 03:38:11;;;;;;;4.45;2.97;;;;;;;-0.64;100.00;94822.91;4946349;28;20039;-50
2020/12/30 03:40:38;;;;;;;4.40;2.83;;;;;;;-0.55;100.00;94827.41;4910238;28;20058;-50
2020/12/30 03:43:05;;;;;;;5.20;3.00;;;;;;;-0.43;100.00;94838.56;4944489;28;20067;-48
2020/12/30 03:45:33;;;;;;;7.22;3.08;;;;;;;-0.33;100.00;94825.75;4911505;28;20044;-53
2020/12/30 03:48:00;;;;;;;4.40;2.92;;;;;;;-0.31;100.00;94837.63;4946737;28;20035;-50
2020/12/30 03:50:28;;;;;;;5.15;3.40;;;;;;;-0.25;100.00;94833.72;4900105;28;20039;-50
2020/12/30 03:52:55;;;;;;;6.07;3.03;;;;;;;-0.19;100.00;94832.44;4946852;28;20046;-48
2020/12/30 03:55:21;;;;;;;6.20;3.53;;;;;;;-0.11;100.00;94833.47;4912544;28;20674;-48
2020/12/30 03:57:48;;;;;;;6.30;3.22;;;;;;;-0.05;100.00;94829.59;4943831;28;20051;-47
2020/12/30 04:00:15;;;;;;;5.43;3.15;;;;;;;-0.07;100.00;94828.88;4914892;28;20058;-48
2020/12/30 04:02:42;;;;;;;5.00;3.30;;;;;;;-0.39;100.00;94836.56;4942479;28;20062;-47
2020/12/30 04:05:09;;;;;;;9.70;3.45;;;;;;;-0.40;100.00;94835.75;4902844;28;20057;-46
2020/12/30 04:07:38;;;;;;;6.75;3.15;;;;;;;-0.60;100.00;94832.09;4945350;28;20043;-48
2020/12/30 04:10:05;;;;;;;6.45;3.50;;;;;;;-0.51;100.00;94840.94;4916860;28;20402;-46
2020/12/30 04:12:32;;;;;;;7.40;3.50;;;;;;;-0.41;100.00;94844.47;4945006;28;20035;-49
2020/12/30 04:14:59;;;;;;;4.88;3.28;;;;;;;-0.28;100.00;94841.75;4901930;28;20092;-46
2020/12/30 04:17:26;;;;;;;7.85;3.38;;;;;;;-0.38;100.00;94841.66;4944871;28;20497;-46
2020/12/30 04:19:53;;;;;;;4.05;2.80;;;;;;;-0.20;100.00;94841.16;4956339;28;20055;-48
2020/12/30 04:22:20;;;;;;;6.68;3.28;;;;;;;-0.14;100.00;94846.66;4903301;28;20043;-46
2020/12/30 04:24:48;;;;;;;9.07;3.70;;;;;;;-0.37;100.00;94850.22;4946639;28;20562;-46
2020/12/30 04:27:15;;;;;;;5.70;3.45;;;;;;;-0.44;100.00;94854.25;4917083;28;20050;-46
2020/12/30 04:29:42;;;;;;;6.72;3.67;;;;;;;-0.53;100.00;94860.94;4942129;28;20129;-50
2020/12/30 04:32:09;;;;;;;5.60;3.40;;;;;;;-0.60;100.00;94850.22;4914922;28;20047;-46
2020/12/30 04:34:36;;;;;;;7.90;3.60;;;;;;;-0.36;100.00;94850.09;4943994;28;20055;-48
2020/12/30 04:37:03;;;;;;;6.22;3.53;;;;;;;-0.17;100.00;94856.44;4892650;28;20055;-46
2020/12/30 04:39:30;;;;;;;7.32;3.45;;;;;;;-0.11;100.00;94843.84;4958588;28;20047;-47
2020/12/30 04:42:00;;;;;;;7.47;3.72;;;;;;;0.07;100.00;94853.72;4915367;28;20059;-47
2020/12/30 04:44:29;;;;;;;6.47;3.60;;;;;;;0.13;100.00;94841.09;4943913;28;20095;-46
2020/12/30 04:46:57;;;;;;;6.85;3.72;;;;;;;0.13;100.00;94848.03;4908857;28;20054;-47
2020/12/30 04:49:25;;;;;;;6.25;3.83;;;;;;;0.16;100.00;94851.22;4943783;28;20050;-50
2020/12/30 04:51:53;;;;;;;6.13;3.42;;;;;;;0.17;100.00;94858.06;4913126;28;20047;-46
2020/12/30 04:54:21;;;;;;;7.03;3.75;;;;;;;0.26;100.00;94855.69;4944208;28;20674;-46
2020/12/30 04:56:59;;;;;;;6.20;4.00;;;;;;;0.28;100.00;94857.22;4914569;28;20071;-46
2020/12/30 04:59:28;;;;;;;5.63;3.33;;;;;;;0.15;100.00;94854.75;4948247;28;20062;-49
2020/12/30 05:02:06;;;;;;;10.10;3.83;;;;;;;0.01;100.00;94862.81;4928739;28;23319;-47
2020/12/30 05:04:34;;;;;;;7.47;4.00;;;;;;;0.05;100.00;94861.63;4945683;28;20035;-50
2020/12/30 05:07:12;;;;;;;7.97;4.20;;;;;;;0.11;100.00;94866.31;4911364;28;20060;-53
2020/12/30 05:09:40;;;;;;;5.93;3.53;;;;;;;0.01;100.00;94867.97;4926611;28;20047;-50
2020/12/30 05:12:13;;;;;;;7.72;3.70;;;;;;;-0.05;100.00;94869.28;4915185;28;20446;-48
2020/12/30 05:14:41;;;;;;;10.25;3.83;;;;;;;0.09;100.00;94870.78;4946885;28;20047;-49
2020/12/30 05:17:09;;;;;;;8.32;3.70;;;;;;;-0.03;100.00;94875.19;4946341;28;20390;-49
2020/12/30 05:19:36;;;;;;;5.82;3.75;;;;;;;-0.01;100.00;94881.03;4926725;28;20047;-46
2020/12/30 05:22:04;;;;;;;7.57;3.85;;;;;;;-0.12;100.00;94882.84;4951015;28;20149;-46
2020/12/30 05:24:32;;;;;;;7.93;3.78;;;;;;;-0.13;100.00;94882.00;4914727;28;20051;-47
2020/12/30 05:26:59;;;;;;;6.07;3.85;;;;;;;-0.04;100.00;94889.03;4951590;28;20537;-48
2020/12/30 05:29:27;;;;;;;10.95;3.97;;;;;;;-0.01;100.00;94890.59;4914364;28;20102;-47
2020/12/30 05:31:55;;;;;;;9.27;3.75;;;;;;;0.02;100.00;94894.72;4950297;28;20047;-47
2020/12/30 05:34:24;;;;;;;8.32;3.97;;;;;;;0.12;100.00;94898.25;4921118;28;20039;-48
2020/12/30 05:36:52;;;;;;;7.55;4.30;;;;;;;0.16;100.00;94899.66;4945152;28;20047;-49
2020/12/30 05:39:20;;;;;;;7.18;3.90;;;;;;;0.10;100.00;94905.28;4915927;28;20130;-46
2020/12/30 05:41:47;;;;;;;7.57;3.83;;;;;;;0.10;100.00;94906.13;4947029;29;20067;-46
2020/12/30 05:44:18;;;;;;;7.90;3.85;;;;;;;0.20;100.00;94901.03;4915732;28;20077;-49
2020/12/30 05:46:46;;;;;;;6.82;3.63;;;;;;;0.28;100.00;94913.44;4950046;28;20158;-49
2020/12/30 05:49:31;;;;;;;7.97;3.72;;;;;;;0.29;100.00;94907.28;4917649;28;20054;-48
2020/12/30 05:52:14;;;;;;;6.63;3.47;;;;;;;0.31;100.00;94914.00;4946007;28;20047;-46
2020/12/30 05:54:52;;;;;;;6.13;3.63;;;;;;;0.31;100.00;94915.75;4911036;28;20055;-45
2020/12/30 05:57:27;;;;;;;5.95;3.35;;;;;;;0.42;100.00;94919.16;4948803;28;20114;-48
2020/12/30 05:59:56;;;;;;;10.55;3.70;;;;;;;0.39;100.00;94924.59;4922503;28;20047;-51
2020/12/30 06:02:25;;;;;;;6.00;3.63;;;;;;;0.31;100.00;94933.91;4950166;28;20548;-50
2020/12/30 06:04:53;;;;;;;7.05;3.95;;;;;;;0.14;100.00;94933.47;4903178;28;20039;-46
2020/12/30 06:07:20;;;;;;;6.93;3.42;;;;;;;-0.14;100.00;94936.50;4947981;28;20047;-49
2020/12/30 06:09:55;;;;;;;7.88;3.80;;;;;;;-0.18;100.00;94948.88;4913302;28;20057;-46
2020/12/30 06:12:27;;;;;;;7.82;3.28;;;;;;;-0.12;100.00;94951.00;4945496;28;20039;-45
2020/12/30 06:14:55;;;;;;;7.88;3.22;;;;;;;0.03;100.00;94955.94;4917430;28;20043;-49
2020/12/30 06:17:27;;;;;;;6.60;3.22;;;;;;;0.09;100.00;94958.91;4951101;28;20054;-47
2020/12/30 06:19:54;;;;;;;9.40;3.50;;;;;;;0.14;100.00;94950.78;4909014;28;20042;-49
2020/12/30 06:22:26;;;;;;;9.68;3.50;;;;;;;0.17;100.00;94951.38;4943747;28;20138;-50
2020/12/30 06:24:56;;;;;;;11.88;5.40;;;;;;;0.21;100.00;94952.78;4922667;28;20083;-48
2020/12/30 06:27:25;;;;;;;10.10;5.45;;;;;;;0.17;100.00;94951.38;4948546;28;20450;-53
2020/12/30 06:29:55;;;;;;;7.40;4.43;;;;;;;0.33;100.00;94953.59;4946836;28;20106;-48
2020/12/30 06:32:33;;;;;;;8.10;4.28;;;;;;;0.29;100.00;94959.97;4923334;28;20065;-46
2020/12/30 06:35:01;;;;;;;6.15;3.63;;;;;;;0.23;100.00;94955.25;4949883;28;20071;-52
2020/12/30 06:37:30;;;;;;;6.68;3.72;;;;;;;0.20;100.00;94958.06;4897765;28;20106;-48
2020/12/30 06:40:20;;;;;;;8.45;3.10;;;;;;;0.15;100.00;94961.03;4951284;28;20050;-49
2020/12/30 06:42:47;;;;;;;10.52;3.42;;;;;;;0.28;100.00;94963.50;4919932;28;20051;-46
2020/12/30 06:45:14;;;;;;;8.63;3.60;;;;;;;0.31;100.00;94973.63;4948548;29;20514;-49
2020/12/30 06:47:58;;;;;;;6.50;3.55;;;;;;;0.23;100.00;94971.63;4919355;28;20039;-48
2020/12/30 06:50:25;;;;;;;5.47;3.47;;;;;;;0.21;100.00;94981.28;4950101;28;20035;-51
2020/12/30 06:52:53;;;;;;;5.53;2.95;;;;;;;0.23;100.00;94983.75;4909290;28;20043;-49
2020/12/30 06:55:43;;;;;;;4.68;3.08;;;;;;;0.16;100.00;94979.97;4950924;28;20050;-50
2020/12/30 06:58:10;;;;;;;;;;;;;;;0.18;100.00;94985.88;4912620;28;20058;-48
2020/12/30 07:00:38;;;;;;;4.28;2.50;;;;;;;0.19;100.00;94979.75;4947242;28;19926;-48
2020/12/30 07:03:12;;;;;;;6.38;3.10;;;;;;;0.26;100.00;94982.69;4919604;28;20229;-49
2020/12/30 07:05:39;;;;;;;6.13;3.13;;;;;;;0.33;100.00;94976.91;4949774;28;20498;-49
2020/12/30 07:08:07;;;;;;;7.25;3.38;;;;;;;0.52;100.00;94978.91;4910240;28;20134;-48
2020/12/30 07:10:42;;;;;;;5.18;2.63;;;;;;;0.61;100.00;94975.56;4948899;28;20108;-50
2020/12/30 07:13:26;;;;;;;6.22;2.47;;;;;;;0.58;100.00;94978.41;4921163;28;20126;-49
2020/12/30 07:16:14;;;;;;;5.78;2.80;;;;;;;0.54;100.00;94981.38;4949413;28;20043;-49
2020/12/30 07:18:47;;;;;;;6.15;3.38;;;;;;;0.53;100.00;94990.94;4917742;28;20050;-50
2020/12/30 07:21:15;;;;;;;5.43;3.05;;;;;;;0.47;100.00;94989.63;4950464;28;20426;-47
2020/12/30 07:23:43;;;;;;;4.07;2.47;;;;;;;0.40;100.00;94991.03;4914113;28;20460;-49
2020/12/30 07:26:16;;;;;;;5.68;2.63;;;;;;;0.34;100.00;94999.28;4943945;28;20051;-47
2020/12/30 07:28:44;;;;;;;5.63;2.50;;;;;;;0.25;100.00;94997.44;4917791;28;20079;-50
2020/12/30 07:31:12;;;;;;;6.88;2.70;;;;;;;0.27;100.00;94999.91;4949858;28;20086;-47
2020/12/30 07:33:39;;;;;;;3.90;2.28;;;;;;;0.41;100.00;95005.69;4910950;28;20055;-46
2020/12/30 07:36:08;;;;;;;4.35;2.28;;;;;;;0.46;100.00;95008.72;4945987;28;20113;-52
2020/12/30 07:38:37;;;;;;;5.22;2.58;;;;;;;0.62;100.00;95008.38;4909308;28;20482;-47
2020/12/30 07:41:05;;;;;;;4.47;2.38;;;;;;;0.73;100.00;95012.72;4946199;28;20051;-47
2020/12/30 07:43:46;;;;;;;5.15;2.42;;;;;;;0.64;100.00;95021.22;4912187;28;20054;-45
2020/12/30 07:46:15;;;;;;;7.03;3.70;;;;;;;0.64;100.00;95024.63;4949472;28;20043;-48
2020/12/30 07:48:41;;;;;;;53.88;26.63;;;;;;;0.68;100.00;95026.03;4916784;28;20498;-51
2020/12/30 07:51:09;;;;;;;5.25;2.90;;;;;;;0.69;100.00;95027.69;4950597;29;20047;-48
2020/12/30 07:53:36;;;;;;;6.75;2.45;;;;;;;0.72;100.00;95029.22;4915493;28;24914;-47
2020/12/30 07:56:03;;;;;;;3.63;2.50;;;;;;;0.67;100.00;95037.34;4946441;28;20078;-47
2020/12/30 07:58:30;;;;;;;4.32;2.60;;;;;;;0.35;100.00;95039.03;4911208;28;20074;-49
2020/12/30 08:00:58;;;;;;;3.83;2.58;;;;;;;0.42;100.00;95041.03;4945897;29;20043;-49
2020/12/30 08:03:26;;;;;;;5.47;2.40;;;;;;;0.40;100.00;95042.91;4947157;28;20058;-48
2020/12/30 08:05:54;;;;;;;5.80;2.80;;;;;;;0.36;100.00;95040.69;4913787;28;20202;-46
2020/12/30 08:08:22;;;;;;;5.22;2.90;;;;;;;0.39;100.00;95045.63;4951027;28;20047;-45
2020/12/30 08:10:55;;;;;;;5.90;3.00;;;;;;;0.48;100.00;95044.91;4917770;28;20589;-47
2020/12/30 08:13:22;;;;;;;4.90;2.70;;;;;;;0.42;100.00;95058.38;4944355;28;20086;-48
2020/12/30 08:15:52;;;;;;;6.03;3.00;;;;;;;0.44;100.00;95059.88;4920191;28;20071;-48
2020/12/30 08:18:20;;;;;;;5.25;2.83;;;;;;;0.50;100.00;95055.19;4948225;28;20043;-47
2020/12/30 08:20:47;;;;;;;4.25;2.83;;;;;;;0.57;100.00;95054.56;4911079;28;20131;-48
2020/12/30 08:23:17;;;;;;;6.22;2.97;;;;;;;0.71;100.00;95061.28;4949471;28;20065;-50
2020/12/30 08:25:49;;;;;;;6.68;3.00;;;;;;;0.80;100.00;95059.75;4917352;28;20134;-45
2020/12/30 08:28:16;;;;;;;4.63;2.70;;;;;;;0.86;100.00;95064.44;4945840;28;20102;-46
2020/12/30 08:30:43;;;;;;;6.53;3.20;;;;;;;0.91;100.00;95067.53;4914449;28;20067;-50
2020/12/30 08:33:11;;;;;;;6.10;2.63;;;;;;;0.80;100.00;95067.53;4951475;29;20039;-50
2020/12/30 08:35:42;;;;;;;6.78;3.28;;;;;;;0.94;100.00;95075.06;4905370;28;20039;-49
2020/12/30 08:38:12;;;;;;;4.93;3.25;;;;;;;1.11;100.00;95066.78;4946627;28;20410;-50
2020/12/30 08:40:40;;;;;;;5.13;3.15;;;;;;;1.24;100.00;95073.59;4915561;28;20069;-52
2020/12/30 08:43:26;;;;;;;6.45;3.28;;;;;;;1.34;100.00;95079.69;4948898;28;20121;-48
2020/12/30 08:46:07;;;;;;;7.25;3.80;;;;;;;1.61;100.00;95079.25;4909892;28;20573;-48
2020/12/30 08:48:40;;;;;;;5.82;3.47;;;;;;;2.25;97.99;95083.56;4948221;28;20136;-48
2020/12/30 08:51:07;;;;;;;8.25;4.10;;;;;;;2.48;94.25;95077.25;4914116;28;20043;-49
2020/12/30 08:53:35;;;;;;;8.55;3.50;;;;;;;2.69;91.33;95081.59;4946267;28;20130;-50
2020/12/30 08:56:03;;;;;;;5.18;3.42;;;;;;;2.81;89.39;95077.94;4921051;28;20047;-46
2020/12/30 08:58:31;;;;;;;7.95;3.28;;;;;;;2.83;88.73;95089.88;4951793;28;20510;-45
2020/12/30 09:00:58;;;;;;;5.47;3.03;;;;;;;2.91;88.78;95089.22;4907402;28;20255;-53
2020/12/30 09:03:27;;;;;;;4.28;3.00;;;;;;;3.09;87.50;95092.00;4950626;28;20102;-52
2020/12/30 09:05:55;;;;;;;3.95;2.75;;;;;;;3.03;86.70;95095.16;4955586;29;20130;-46
2020/12/30 09:08:24;;;;;;;5.65;3.00;;;;;;;2.90;87.13;95097.16;4909029;28;20444;-45
2020/12/30 09:10:52;;;;;;;6.20;3.13;;;;;;;2.83;86.88;95102.06;4943711;29;20061;-46
2020/12/30 09:13:20;;;;;;;4.57;2.97;;;;;;;2.57;88.00;95105.09;4924841;28;20537;-46
2020/12/30 09:15:54;;;;;;;3.85;2.58;;;;;;;2.48;89.78;95111.09;4950342;28;20047;-48
2020/12/30 09:18:22;;;;;;;4.28;2.47;;;;;;;2.50;90.91;95103.94;4905019;28;20051;-47
2020/12/30 09:20:49;;;;;;;5.68;2.50;;;;;;;2.52;90.22;95102.06;4954272;29;20043;-47
2020/12/30 09:23:16;;;;;;;3.95;2.53;;;;;;;2.83;89.68;95099.47;4916887;28;20043;-46
2020/12/30 09:25:46;;;;;;;3.90;2.40;;;;;;;2.90;88.84;95102.38;4942978;29;20058;-46
2020/12/30 09:28:16;;;;;;;6.40;2.63;;;;;;;3.03;87.72;95103.78;4919652;28;20542;-46
2020/12/30 09:30:43;;;;;;;5.40;2.17;;;;;;;3.14;85.52;95099.44;4949832;28;20039;-47
2020/12/30 09:33:13;;;;;;;4.60;2.78;;;;;;;3.40;85.12;95097.16;4915074;28;20354;-47
2020/12/30 09:35:41;;;;;;;4.13;2.53;;;;;;;3.42;83.70;95096.06;4945408;28;20102;-49
2020/12/30 09:38:08;;;;;;;4.57;2.28;;;;;;;3.30;84.63;95105.78;4917871;28;20105;-49
2020/12/30 09:40:42;;;;;;;4.40;2.50;;;;;;;3.37;85.18;95107.84;4946784;28;20455;-46
2020/12/30 09:43:11;;;;;;;5.30;2.53;;;;;;;3.22;85.97;95104.78;4920471;28;20075;-46
2020/12/30 09:45:38;;;;;;;5.50;2.50;;;;;;;3.38;85.96;95110.34;4950728;28;20118;-51
2020/12/30 09:48:13;;;;;;;5.57;2.47;;;;;;;3.36;87.23;95103.59;4912849;28;20051;-46
2020/12/30 09:50:41;;;;;;;3.25;2.08;;;;;;;3.47;86.74;95108.69;4948036;29;20039;-45
2020/12/30 09:53:08;;;;;;;3.63;2.40;;;;;;;3.81;85.24;95109.13;4917464;28;20051;-47
2020/12/30 09:55:35;;;;;;;4.43;2.30;;;;;;;4.17;83.71;95106.81;4948054;28;20050;-46
2020/12/30 09:58:03;;;;;;;6.03;2.67;;;;;;;4.31;80.67;95102.97;4947346;28;20063;-47
2020/12/30 10:00:30;;;;;;;5.32;2.40;;;;;;;4.15;80.41;95095.69;4934278;28;20058;-48
2020/12/30 10:02:57;;;;;;;3.65;2.60;;;;;;;3.88;80.88;95091.97;4952587;28;20537;-51
2020/12/30 10:05:25;;;;;;;3.83;2.40;;;;;;;4.19;79.66;95090.03;4911297;28;20051;-46
2020/12/30 10:07:52;;;;;;;5.80;2.90;;;;;;;4.67;77.17;95090.91;4948577;28;20150;-46
2020/12/30 10:10:19;;;;;;;8.13;2.83;;;;;;;5.20;75.04;95085.06;4919761;28;20038;-47
2020/12/30 10:12:48;;;;;;;4.72;2.60;;;;;;;5.20;76.36;95080.66;4946901;28;20043;-51
2020/12/30 10:15:17;;;;;;;4.10;2.53;;;;;;;5.57;72.90;95086.75;4915738;28;20035;-51
2020/12/30 10:17:44;;;;;;;3.63;2.30;;;;;;;5.52;72.67;95073.31;4949225;28;20145;-51
2020/12/30 10:20:13;;;;;;;3.25;2.30;;;;;;;5.99;70.31;95079.22;4915792;28;20041;-49
2020/12/30 10:22:41;;;;;;;5.85;2.55;;;;;;;5.80;69.08;95087.16;4949881;28;20067;-47
2020/12/30 10:25:09;;;;;;;4.68;2.35;;;;;;;6.07;72.05;95089.72;4917009;28;20110;-48
2020/12/30 10:27:37;;;;;;;3.75;2.47;;;;;;;6.31;71.05;95076.03;4949935;28;20093;-51
2020/12/30 10:30:05;;;;;;;3.20;2.53;;;;;;;6.33;68.54;95076.69;4918971;28;20525;-49
2020/12/30 10:32:32;;;;;;;5.20;2.30;;;;;;;6.46;68.79;95083.31;4950093;28;20039;-46
2020/12/30 10:34:59;;;;;;;5.65;2.35;;;;;;;6.72;67.80;95083.34;4909182;28;20477;-54
2020/12/30 10:37:26;;;;;;;3.53;2.35;;;;;;;6.77;67.11;95083.69;4937756;28;20051;-51
2020/12/30 10:39:54;;;;;;;4.10;2.90;;;;;;;6.89;66.67;95079.81;4917787;28;20066;-50
2020/12/30 10:42:21;;;;;;;3.72;2.40;;;;;;;6.70;67.47;95086.09;4951950;28;20043;-47
2020/12/30 10:44:48;;;;;;;5.13;2.45;;;;;;;6.58;67.34;95085.53;4946320;28;20139;-52
2020/12/30 10:47:15;;;;;;;3.60;2.47;;;;;;;6.28;68.98;95086.78;4911782;28;20039;-46
2020/12/30 10:49:43;;;;;;;5.25;2.70;;;;;;;5.43;71.74;95082.84;4950710;28;20050;-47
2020/12/30 10:52:12;;;;;;;3.78;2.53;;;;;;;5.04;73.31;95085.69;4915396;28;20489;-50
2020/12/30 10:54:42;;;;;;;4.78;2.47;;;;;;;5.20;75.80;95085.06;4940598;28;20573;-51
2020/12/30 10:57:10;;;;;;;;;;;;;;;5.04;77.07;95092.72;4922676;28;20110;-46
2020/12/30 10:59:37;;;;;;;4.45;2.60;;;;;;;5.10;77.07;95087.72;4947490;28;19930;-49
2020/12/30 11:02:04;;;;;;;4.72;2.65;;;;;;;5.07;77.67;95088.00;4901106;28;20039;-51
2020/12/30 11:04:31;;;;;;;5.05;2.85;;;;;;;4.98;77.91;95081.84;4950543;28;20391;-50
2020/12/30 11:06:59;;;;;;;3.95;2.67;;;;;;;4.88;78.65;95088.09;4911094;28;20102;-49
2020/12/30 11:09:25;;;;;;;4.90;2.85;;;;;;;4.81;79.69;95085.22;4939330;28;20422;-48
2020/12/30 11:11:52;;;;;;;4.50;2.75;;;;;;;4.78;79.98;95082.06;4919951;28;20498;-47
2020/12/30 11:14:20;;;;;;;5.43;3.13;;;;;;;4.64;81.08;95088.56;4953731;28;20138;-50
2020/12/30 11:16:48;;;;;;;5.40;2.97;;;;;;;4.60;81.55;95089.84;4908775;28;20051;-48
2020/12/30 11:19:15;;;;;;;5.38;2.80;;;;;;;4.44;81.69;95090.41;4946266;28;20051;-47
2020/12/30 11:21:42;;;;;;;4.72;2.97;;;;;;;4.56;82.31;95097.13;4919011;28;20474;-49
2020/12/30 11:24:09;;;;;;;5.45;3.40;;;;;;;4.85;81.28;95090.97;4948655;29;20055;-49
2020/12/30 11:26:36;;;;;;;7.50;4.18;;;;;;;5.16;80.13;95094.16;4913453;28;20538;-50
2020/12/30 11:29:03;;;;;;;6.70;3.90;;;;;;;5.44;77.99;95090.56;4950438;28;20094;-50
2020/12/30 11:31:31;;;;;;;10.18;4.63;;;;;;;5.62;76.29;95092.38;4947130;28;20047;-48
2020/12/30 11:33:58;;;;;;;6.57;4.60;;;;;;;5.36;75.68;95087.84;4904649;28;20133;-49
2020/12/30 11:36:27;;;;;;;8.98;4.80;;;;;;;5.24;74.90;95091.66;4942652;28;20564;-51
2020/12/30 11:38:54;;;;;;;6.93;4.30;;;;;;;5.48;74.59;95081.47;4918898;28;20536;-47